sensor_id;sensor_type;location;lat;lon;timestamp;pressure;altitude;pressure_sealevel;temperature;humidity
42671;BME280;28283;55.426;37.756;2023-07-20T00:04:47;98010.56;;;12.78;81.99
42671;BME280;28283;55.426;37.756;2023-07-20T00:09:48;98059.16;;;13.00;82.46
42671;BME280;28283;55.426;37.756;2023-07-20T00:14:48;98091.78;;;13.21;82.49
42671;BME280;28283;55.426;37.756;2023-07-20T00:19:49;98088.97;;;13.10;82.73
42671;BME280;28283;55.426;37.756;2023-07-20T00:24:50;98059.50;;;12.70;84.03
42671;BME280;28283;55.426;37.756;2023-07-20T00:29:50;98098.16;;;12.92;83.95
42671;BME280;28283;55.426;37.756;2023-07-20T00:34:51;98090.78;;;12.88;83.99
42671;BME280;28283;55.426;37.756;2023-07-20T00:39:53;98027.69;;;12.33;84.70
42671;BME280;28283;55.426;37.756;2023-07-20T00:44:53;98030.38;;;12.33;84.96
42671;BME280;28283;55.426;37.756;2023-07-20T00:49:54;98094.72;;;12.63;85.74
42671;BME280;28283;55.426;37.756;2023-07-20T00:54:55;98103.13;;;12.67;85.72
42671;BME280;28283;55.426;37.756;2023-07-20T00:59:56;98061.06;;;12.32;86.47
42671;BME280;28283;55.426;37.756;2023-07-20T01:04:57;98094.16;;;12.44;86.70
42671;BME280;28283;55.426;37.756;2023-07-20T01:10:03;98086.81;;;12.56;85.90
42671;BME280;28283;55.426;37.756;2023-07-20T01:15:07;98064.25;;;12.29;86.76
42671;BME280;28283;55.426;37.756;2023-07-20T01:20:13;98096.28;;;12.59;86.45
42671;BME280;28283;55.426;37.756;2023-07-20T01:25:34;98096.09;;;12.49;86.96
42671;BME280;28283;55.426;37.756;2023-07-20T01:36:00;98086.63;;;12.46;86.64
42671;BME280;28283;55.426;37.756;2023-07-20T01:41:02;98097.06;;;12.59;86.85
42671;BME280;28283;55.426;37.756;2023-07-20T01:46:03;98099.88;;;12.82;86.10
42671;BME280;28283;55.426;37.756;2023-07-20T01:51:04;98095.13;;;12.55;86.18
42671;BME280;28283;55.426;37.756;2023-07-20T01:56:04;98092.09;;;12.34;87.19
42671;BME280;28283;55.426;37.756;2023-07-20T02:01:05;98081.56;;;12.33;87.70
42671;BME280;28283;55.426;37.756;2023-07-20T02:06:05;98096.50;;;12.40;87.56
42671;BME280;28283;55.426;37.756;2023-07-20T02:11:06;98109.25;;;12.45;87.68
42671;BME280;28283;55.426;37.756;2023-07-20T02:16:07;98098.84;;;12.20;88.38
42671;BME280;28283;55.426;37.756;2023-07-20T02:21:07;98103.69;;;12.35;88.75
42671;BME280;28283;55.426;37.756;2023-07-20T02:26:11;98095.84;;;12.50;88.04
42671;BME280;28283;55.426;37.756;2023-07-20T02:31:11;98107.53;;;12.56;87.77
42671;BME280;28283;55.426;37.756;2023-07-20T02:36:12;98105.25;;;12.48;87.77
42671;BME280;28283;55.426;37.756;2023-07-20T02:41:13;98110.84;;;12.58;88.15
42671;BME280;28283;55.426;37.756;2023-07-20T02:46:14;98092.53;;;12.60;86.79
42671;BME280;28283;55.426;37.756;2023-07-20T02:51:15;98090.97;;;12.47;87.48
42671;BME280;28283;55.426;37.756;2023-07-20T02:56:16;98116.88;;;12.82;87.31
42671;BME280;28283;55.426;37.756;2023-07-20T03:01:16;98109.16;;;12.74;87.10
42671;BME280;28283;55.426;37.756;2023-07-20T03:06:17;98105.91;;;12.89;87.07
42671;BME280;28283;55.426;37.756;2023-07-20T03:11:19;98128.91;;;13.13;85.98
42671;BME280;28283;55.426;37.756;2023-07-20T03:16:20;98115.81;;;13.22;85.67
42671;BME280;28283;55.426;37.756;2023-07-20T03:21:20;98125.66;;;13.28;84.65
42671;BME280;28283;55.426;37.756;2023-07-20T03:26:21;98145.59;;;13.44;84.99
42671;BME280;28283;55.426;37.756;2023-07-20T03:31:22;98136.31;;;13.79;82.98
42671;BME280;28283;55.426;37.756;2023-07-20T03:36:22;98123.53;;;13.69;83.46
42671;BME280;28283;55.426;37.756;2023-07-20T03:41:23;98107.22;;;13.86;81.62
42671;BME280;28283;55.426;37.756;2023-07-20T03:46:23;98132.34;;;13.87;82.60
42671;BME280;28283;55.426;37.756;2023-07-20T03:51:25;98127.19;;;14.07;82.35
42671;BME280;28283;55.426;37.756;2023-07-20T03:56:26;98107.00;;;14.15;80.85
42671;BME280;28283;55.426;37.756;2023-07-20T04:01:26;98135.56;;;14.33;80.36
42671;BME280;28283;55.426;37.756;2023-07-20T04:06:27;98136.81;;;14.52;80.07
42671;BME280;28283;55.426;37.756;2023-07-20T04:11:28;98100.34;;;14.82;78.18
42671;BME280;28283;55.426;37.756;2023-07-20T04:16:28;98137.75;;;14.96;77.27
42671;BME280;28283;55.426;37.756;2023-07-20T04:21:29;98109.97;;;15.11;76.66
42671;BME280;28283;55.426;37.756;2023-07-20T04:26:30;98147.63;;;15.12;76.50
42671;BME280;28283;55.426;37.756;2023-07-20T04:31:30;98139.31;;;15.24;75.76
42671;BME280;28283;55.426;37.756;2023-07-20T04:36:33;98115.25;;;15.27;75.40
42671;BME280;28283;55.426;37.756;2023-07-20T04:41:34;98069.94;;;15.07;74.78
42671;BME280;28283;55.426;37.756;2023-07-20T04:46:35;98135.81;;;15.76;74.00
42671;BME280;28283;55.426;37.756;2023-07-20T04:51:36;98145.06;;;15.86;73.77
42671;BME280;28283;55.426;37.756;2023-07-20T04:56:36;98122.47;;;15.70;73.09
42671;BME280;28283;55.426;37.756;2023-07-20T05:01:37;98137.00;;;16.01;72.91
42671;BME280;28283;55.426;37.756;2023-07-20T05:06:38;98156.31;;;16.30;71.20
42671;BME280;28283;55.426;37.756;2023-07-20T05:11:39;98154.19;;;16.42;69.58
42671;BME280;28283;55.426;37.756;2023-07-20T05:16:39;98121.88;;;16.31;69.41
42671;BME280;28283;55.426;37.756;2023-07-20T05:21:40;98150.41;;;16.64;69.22
42671;BME280;28283;55.426;37.756;2023-07-20T05:26:41;98143.38;;;16.78;68.40
42671;BME280;28283;55.426;37.756;2023-07-20T05:31:42;98155.88;;;16.95;67.27
42671;BME280;28283;55.426;37.756;2023-07-20T05:36:42;98124.31;;;17.35;65.07
42671;BME280;28283;55.426;37.756;2023-07-20T05:41:43;98160.44;;;17.41;64.05
42671;BME280;28283;55.426;37.756;2023-07-20T05:46:44;98136.84;;;17.15;64.78
42671;BME280;28283;55.426;37.756;2023-07-20T05:51:44;98144.63;;;17.63;61.99
42671;BME280;28283;55.426;37.756;2023-07-20T05:56:47;98144.94;;;17.51;62.72
42671;BME280;28283;55.426;37.756;2023-07-20T06:01:47;98159.00;;;17.89;60.67
42671;BME280;28283;55.426;37.756;2023-07-20T06:06:49;98134.81;;;17.88;61.45
42671;BME280;28283;55.426;37.756;2023-07-20T06:11:50;98128.56;;;17.87;60.46
42671;BME280;28283;55.426;37.756;2023-07-20T06:16:50;98144.50;;;18.09;59.77
42671;BME280;28283;55.426;37.756;2023-07-20T06:21:51;98142.31;;;18.06;60.00
42671;BME280;28283;55.426;37.756;2023-07-20T06:26:51;98154.06;;;18.46;59.99
42671;BME280;28283;55.426;37.756;2023-07-20T06:31:52;98136.69;;;18.37;59.35
42671;BME280;28283;55.426;37.756;2023-07-20T06:36:53;98153.16;;;18.61;58.08
42671;BME280;28283;55.426;37.756;2023-07-20T06:41:53;98161.56;;;18.65;58.08
42671;BME280;28283;55.426;37.756;2023-07-20T06:46:54;98145.22;;;19.04;54.10
42671;BME280;28283;55.426;37.756;2023-07-20T06:51:55;98165.28;;;18.79;55.16
42671;BME280;28283;55.426;37.756;2023-07-20T06:56:56;98153.28;;;18.80;55.34
42671;BME280;28283;55.426;37.756;2023-07-20T07:01:56;98123.53;;;18.94;53.10
42671;BME280;28283;55.426;37.756;2023-07-20T07:06:57;98157.38;;;18.83;54.82
42671;BME280;28283;55.426;37.756;2023-07-20T07:11:58;98134.81;;;19.12;54.52
42671;BME280;28283;55.426;37.756;2023-07-20T07:16:59;98171.84;;;19.42;51.75
42671;BME280;28283;55.426;37.756;2023-07-20T07:21:59;98176.81;;;19.35;52.79
42671;BME280;28283;55.426;37.756;2023-07-20T07:27:00;98185.31;;;19.57;51.58
42671;BME280;28283;55.426;37.756;2023-07-20T07:32:01;98150.47;;;19.25;52.68
42671;BME280;28283;55.426;37.756;2023-07-20T07:37:02;98157.31;;;19.22;53.67
42671;BME280;28283;55.426;37.756;2023-07-20T07:42:02;98170.03;;;19.61;52.35
42671;BME280;28283;55.426;37.756;2023-07-20T07:47:03;98136.66;;;19.45;50.92
42671;BME280;28283;55.426;37.756;2023-07-20T07:52:04;98170.16;;;19.75;50.74
42671;BME280;28283;55.426;37.756;2023-07-20T07:57:05;98175.13;;;19.39;52.38
42671;BME280;28283;55.426;37.756;2023-07-20T08:02:05;98171.13;;;19.84;51.41
42671;BME280;28283;55.426;37.756;2023-07-20T08:07:06;98172.31;;;19.78;51.80
42671;BME280;28283;55.426;37.756;2023-07-20T08:12:07;98171.31;;;19.93;52.19
42671;BME280;28283;55.426;37.756;2023-07-20T08:17:07;98157.66;;;19.69;52.63
42671;BME280;28283;55.426;37.756;2023-07-20T08:22:08;98182.97;;;19.99;50.08
42671;BME280;28283;55.426;37.756;2023-07-20T08:27:09;98166.50;;;19.56;51.35
42671;BME280;28283;55.426;37.756;2023-07-20T08:32:09;98183.03;;;19.94;51.55
42671;BME280;28283;55.426;37.756;2023-07-20T08:37:10;98163.78;;;19.85;51.01
42671;BME280;28283;55.426;37.756;2023-07-20T08:42:11;98184.38;;;19.96;51.59
42671;BME280;28283;55.426;37.756;2023-07-20T08:47:15;98196.84;;;19.78;51.22
42671;BME280;28283;55.426;37.756;2023-07-20T08:52:17;98186.72;;;19.55;53.26
42671;BME280;28283;55.426;37.756;2023-07-20T08:57:17;98187.66;;;19.93;52.22
42671;BME280;28283;55.426;37.756;2023-07-20T09:02:19;98173.38;;;19.77;51.67
42671;BME280;28283;55.426;37.756;2023-07-20T09:07:22;98137.47;;;19.94;50.65
42671;BME280;28283;55.426;37.756;2023-07-20T09:12:23;98212.84;;;19.56;56.87
42671;BME280;28283;55.426;37.756;2023-07-20T09:17:25;98183.78;;;18.82;62.07
42671;BME280;28283;55.426;37.756;2023-07-20T09:22:30;98207.75;;;18.30;65.07
42671;BME280;28283;55.426;37.756;2023-07-20T09:27:45;98196.19;;;17.94;66.71
42671;BME280;28283;55.426;37.756;2023-07-20T09:32:48;98220.34;;;18.16;67.49
42671;BME280;28283;55.426;37.756;2023-07-20T09:37:58;98193.91;;;18.27;67.01
42671;BME280;28283;55.426;37.756;2023-07-20T09:42:59;98236.31;;;18.33;69.55
42671;BME280;28283;55.426;37.756;2023-07-20T09:48:06;98222.88;;;17.77;70.82
42671;BME280;28283;55.426;37.756;2023-07-20T09:53:09;98216.91;;;17.69;69.69
42671;BME280;28283;55.426;37.756;2023-07-20T09:58:11;98215.97;;;18.20;65.47
42671;BME280;28283;55.426;37.756;2023-07-20T10:03:16;98214.59;;;18.73;66.13
42671;BME280;28283;55.426;37.756;2023-07-20T10:08:19;98207.00;;;19.09;65.70
42671;BME280;28283;55.426;37.756;2023-07-20T10:13:29;98214.72;;;19.31;66.29
42671;BME280;28283;55.426;37.756;2023-07-20T10:18:46;98202.28;;;19.78;63.73
42671;BME280;28283;55.426;37.756;2023-07-20T10:23:50;98195.06;;;19.63;62.24
42671;BME280;28283;55.426;37.756;2023-07-20T10:28:50;98203.25;;;20.36;55.35
42671;BME280;28283;55.426;37.756;2023-07-20T10:33:51;98188.53;;;20.13;53.47
42671;BME280;28283;55.426;37.756;2023-07-20T10:38:54;98213.03;;;20.61;53.19
42671;BME280;28283;55.426;37.756;2023-07-20T10:44:06;98204.53;;;20.63;51.91
42671;BME280;28283;55.426;37.756;2023-07-20T10:49:09;98174.09;;;20.31;52.41
42671;BME280;28283;55.426;37.756;2023-07-20T10:59:36;98199.84;;;19.77;60.06
42671;BME280;28283;55.426;37.756;2023-07-20T11:04:44;98249.16;;;18.77;64.87
42671;BME280;28283;55.426;37.756;2023-07-20T11:09:45;98255.13;;;18.19;68.64
42671;BME280;28283;55.426;37.756;2023-07-20T11:14:56;98243.31;;;18.44;68.78
42671;BME280;28283;55.426;37.756;2023-07-20T11:19:58;98250.50;;;19.19;66.62
42671;BME280;28283;55.426;37.756;2023-07-20T11:25:04;98210.56;;;20.16;61.38
42671;BME280;28283;55.426;37.756;2023-07-20T11:30:15;98217.44;;;20.57;60.68
42671;BME280;28283;55.426;37.756;2023-07-20T11:35:16;98230.94;;;20.67;59.11
42671;BME280;28283;55.426;37.756;2023-07-20T11:40:17;98214.44;;;20.96;56.61
42671;BME280;28283;55.426;37.756;2023-07-20T11:45:19;98195.88;;;21.26;54.36
42671;BME280;28283;55.426;37.756;2023-07-20T11:50:20;98190.78;;;20.87;52.80
42671;BME280;28283;55.426;37.756;2023-07-20T11:55:21;98221.56;;;20.92;54.03
42671;BME280;28283;55.426;37.756;2023-07-20T12:00:24;98233.09;;;20.27;57.43
42671;BME280;28283;55.426;37.756;2023-07-20T12:05:25;98219.28;;;20.18;58.26
42671;BME280;28283;55.426;37.756;2023-07-20T12:10:29;98218.03;;;20.92;57.04
42671;BME280;28283;55.426;37.756;2023-07-20T12:15:30;98211.19;;;21.46;52.29
42671;BME280;28283;55.426;37.756;2023-07-20T12:20:36;98200.44;;;21.64;51.40
42671;BME280;28283;55.426;37.756;2023-07-20T12:30:40;98177.69;;;21.96;45.74
42671;BME280;28283;55.426;37.756;2023-07-20T12:35:41;98195.81;;;22.34;47.00
42671;BME280;28283;55.426;37.756;2023-07-20T12:40:43;98217.50;;;22.44;46.78
42671;BME280;28283;55.426;37.756;2023-07-20T12:45:44;98206.72;;;22.61;46.34
42671;BME280;28283;55.426;37.756;2023-07-20T12:50:44;98199.91;;;22.73;45.92
42671;BME280;28283;55.426;37.756;2023-07-20T12:55:45;98202.22;;;22.79;48.07
42671;BME280;28283;55.426;37.756;2023-07-20T13:00:46;98212.88;;;23.03;45.08
42671;BME280;28283;55.426;37.756;2023-07-20T13:05:47;98199.88;;;23.09;44.29
42671;BME280;28283;55.426;37.756;2023-07-20T13:10:48;98187.03;;;22.96;46.47
42671;BME280;28283;55.426;37.756;2023-07-20T13:15:49;98216.75;;;22.66;47.00
42671;BME280;28283;55.426;37.756;2023-07-20T13:20:50;98180.81;;;22.17;47.69
42671;BME280;28283;55.426;37.756;2023-07-20T13:25:51;98210.41;;;21.73;48.78
42671;BME280;28283;55.426;37.756;2023-07-20T13:30:52;98211.81;;;21.57;49.91
42671;BME280;28283;55.426;37.756;2023-07-20T13:35:52;98203.78;;;21.47;50.84
42671;BME280;28283;55.426;37.756;2023-07-20T13:40:53;98200.75;;;21.29;51.49
42671;BME280;28283;55.426;37.756;2023-07-20T13:45:53;98188.81;;;21.58;51.09
42671;BME280;28283;55.426;37.756;2023-07-20T13:50:54;98148.06;;;21.43;50.11
42671;BME280;28283;55.426;37.756;2023-07-20T13:55:55;98188.50;;;21.60;50.24
42671;BME280;28283;55.426;37.756;2023-07-20T14:00:57;98167.97;;;21.29;50.66
42671;BME280;28283;55.426;37.756;2023-07-20T14:05:57;98215.66;;;21.56;52.00
42671;BME280;28283;55.426;37.756;2023-07-20T14:10:58;98178.78;;;20.88;53.53
42671;BME280;28283;55.426;37.756;2023-07-20T14:15:58;98200.69;;;21.02;53.17
42671;BME280;28283;55.426;37.756;2023-07-20T14:20:59;98188.47;;;21.46;52.09
42671;BME280;28283;55.426;37.756;2023-07-20T14:26:02;98180.53;;;21.44;50.51
42671;BME280;28283;55.426;37.756;2023-07-20T14:31:06;98161.06;;;21.65;47.18
42671;BME280;28283;55.426;37.756;2023-07-20T14:36:06;98173.13;;;21.50;49.63
42671;BME280;28283;55.426;37.756;2023-07-20T14:41:07;98203.91;;;21.69;47.44
42671;BME280;28283;55.426;37.756;2023-07-20T14:46:08;98192.50;;;21.95;45.26
42671;BME280;28283;55.426;37.756;2023-07-20T14:51:08;98207.25;;;21.80;45.13
42671;BME280;28283;55.426;37.756;2023-07-20T14:56:09;98209.38;;;21.69;45.68
42671;BME280;28283;55.426;37.756;2023-07-20T15:01:10;98201.63;;;21.44;45.95
42671;BME280;28283;55.426;37.756;2023-07-20T15:06:11;98200.97;;;21.52;45.23
42671;BME280;28283;55.426;37.756;2023-07-20T15:11:12;98182.72;;;21.14;46.37
42671;BME280;28283;55.426;37.756;2023-07-20T15:16:12;98203.91;;;21.69;44.71
42671;BME280;28283;55.426;37.756;2023-07-20T15:21:13;98189.63;;;21.72;43.52
42671;BME280;28283;55.426;37.756;2023-07-20T15:26:14;98189.97;;;21.38;43.83
42671;BME280;28283;55.426;37.756;2023-07-20T15:31:15;98195.00;;;21.31;44.22
42671;BME280;28283;55.426;37.756;2023-07-20T15:36:15;98217.81;;;21.40;44.54
42671;BME280;28283;55.426;37.756;2023-07-20T15:41:16;98219.94;;;21.10;45.02
42671;BME280;28283;55.426;37.756;2023-07-20T15:51:20;98193.38;;;21.30;44.10
42671;BME280;28283;55.426;37.756;2023-07-20T15:56:20;98220.09;;;21.52;43.67
42671;BME280;28283;55.426;37.756;2023-07-20T16:01:21;98204.19;;;21.21;44.32
42671;BME280;28283;55.426;37.756;2023-07-20T16:06:22;98200.88;;;21.85;43.49
42671;BME280;28283;55.426;37.756;2023-07-20T16:11:22;98221.56;;;22.46;42.60
42671;BME280;28283;55.426;37.756;2023-07-20T16:16:24;98227.03;;;23.19;40.56
42671;BME280;28283;55.426;37.756;2023-07-20T16:21:24;98209.88;;;23.28;40.16
42671;BME280;28283;55.426;37.756;2023-07-20T16:26:25;98237.19;;;23.41;39.33
42671;BME280;28283;55.426;37.756;2023-07-20T16:31:25;98197.91;;;22.87;38.31
42671;BME280;28283;55.426;37.756;2023-07-20T16:36:26;98250.88;;;22.82;38.41
42671;BME280;28283;55.426;37.756;2023-07-20T16:41:27;98239.41;;;22.44;39.38
42671;BME280;28283;55.426;37.756;2023-07-20T16:46:27;98189.03;;;22.31;39.46
42671;BME280;28283;55.426;37.756;2023-07-20T16:51:28;98257.16;;;22.46;39.65
42671;BME280;28283;55.426;37.756;2023-07-20T16:56:29;98276.41;;;22.41;39.93
42671;BME280;28283;55.426;37.756;2023-07-20T17:01:29;98285.97;;;22.44;40.10
42671;BME280;28283;55.426;37.756;2023-07-20T17:06:30;98252.69;;;21.95;40.93
42671;BME280;28283;55.426;37.756;2023-07-20T17:11:30;98305.03;;;21.88;41.58
42671;BME280;28283;55.426;37.756;2023-07-20T17:16:31;98307.88;;;21.31;42.84
42671;BME280;28283;55.426;37.756;2023-07-20T17:21:31;98326.28;;;21.07;43.99
42671;BME280;28283;55.426;37.756;2023-07-20T17:26:32;98268.53;;;20.08;45.96
42671;BME280;28283;55.426;37.756;2023-07-20T17:31:33;98286.88;;;20.27;46.46
42671;BME280;28283;55.426;37.756;2023-07-20T17:36:34;98304.59;;;20.00;47.73
42671;BME280;28283;55.426;37.756;2023-07-20T17:41:34;98305.59;;;20.09;47.69
42671;BME280;28283;55.426;37.756;2023-07-20T17:46:35;98287.03;;;19.53;49.06
42671;BME280;28283;55.426;37.756;2023-07-20T17:51:36;98314.94;;;19.74;48.88
42671;BME280;28283;55.426;37.756;2023-07-20T17:56:37;98283.53;;;19.07;50.37
42671;BME280;28283;55.426;37.756;2023-07-20T18:01:37;98319.78;;;19.48;49.97
42671;BME280;28283;55.426;37.756;2023-07-20T18:06:38;98330.09;;;19.11;51.02
42671;BME280;28283;55.426;37.756;2023-07-20T18:11:39;98295.69;;;18.76;50.96
42671;BME280;28283;55.426;37.756;2023-07-20T18:16:40;98271.06;;;18.46;51.46
42671;BME280;28283;55.426;37.756;2023-07-20T18:21:40;98311.78;;;18.72;51.62
42671;BME280;28283;55.426;37.756;2023-07-20T18:26:41;98253.25;;;18.09;52.33
42671;BME280;28283;55.426;37.756;2023-07-20T18:31:41;98310.63;;;18.78;51.85
42671;BME280;28283;55.426;37.756;2023-07-20T18:36:42;98304.03;;;18.35;53.02
42671;BME280;28283;55.426;37.756;2023-07-20T18:41:42;98303.78;;;18.26;53.07
42671;BME280;28283;55.426;37.756;2023-07-20T18:46:43;98316.31;;;18.27;53.49
42671;BME280;28283;55.426;37.756;2023-07-20T18:51:43;98321.53;;;17.92;54.79
42671;BME280;28283;55.426;37.756;2023-07-20T18:56:44;98260.13;;;17.30;55.78
42671;BME280;28283;55.426;37.756;2023-07-20T19:01:44;98304.13;;;17.42;55.89
42671;BME280;28283;55.426;37.756;2023-07-20T19:06:46;98338.94;;;17.50;56.77
42671;BME280;28283;55.426;37.756;2023-07-20T19:11:47;98335.94;;;17.47;56.39
42671;BME280;28283;55.426;37.756;2023-07-20T19:16:47;98276.94;;;17.01;57.18
42671;BME280;28283;55.426;37.756;2023-07-20T19:21:48;98331.00;;;17.13;58.24
42671;BME280;28283;55.426;37.756;2023-07-20T19:26:49;98298.03;;;16.73;59.21
42671;BME280;28283;55.426;37.756;2023-07-20T19:31:50;98338.81;;;16.84;59.59
42671;BME280;28283;55.426;37.756;2023-07-20T19:36:50;98324.59;;;16.61;60.14
42671;BME280;28283;55.426;37.756;2023-07-20T19:41:51;98333.78;;;16.55;60.70
42671;BME280;28283;55.426;37.756;2023-07-20T19:46:52;98340.22;;;16.44;61.09
42671;BME280;28283;55.426;37.756;2023-07-20T19:51:52;98312.50;;;16.26;61.24
42671;BME280;28283;55.426;37.756;2023-07-20T19:56:53;98339.38;;;16.33;61.72
42671;BME280;28283;55.426;37.756;2023-07-20T20:01:54;98358.19;;;16.50;60.14
42671;BME280;28283;55.426;37.756;2023-07-20T20:06:55;98361.78;;;16.18;62.75
42671;BME280;28283;55.426;37.756;2023-07-20T20:11:57;98361.72;;;16.02;63.61
42671;BME280;28283;55.426;37.756;2023-07-20T20:16:57;98364.34;;;15.92;63.96
42671;BME280;28283;55.426;37.756;2023-07-20T20:21:58;98354.56;;;15.91;64.22
42671;BME280;28283;55.426;37.756;2023-07-20T20:27:01;98357.81;;;15.88;64.57
42671;BME280;28283;55.426;37.756;2023-07-20T20:32:02;98351.38;;;15.67;65.49
42671;BME280;28283;55.426;37.756;2023-07-20T20:37:04;98358.06;;;15.59;66.06
42671;BME280;28283;55.426;37.756;2023-07-20T20:42:05;98367.00;;;15.55;66.28
42671;BME280;28283;55.426;37.756;2023-07-20T20:47:06;98366.00;;;15.66;64.72
42671;BME280;28283;55.426;37.756;2023-07-20T20:52:07;98354.59;;;15.32;66.99
42671;BME280;28283;55.426;37.756;2023-07-20T20:57:08;98351.53;;;15.23;67.11
42671;BME280;28283;55.426;37.756;2023-07-20T21:02:08;98374.03;;;15.28;67.95
42671;BME280;28283;55.426;37.756;2023-07-20T21:07:12;98358.09;;;15.05;68.54
42671;BME280;28283;55.426;37.756;2023-07-20T21:12:13;98375.78;;;15.13;68.53
42671;BME280;28283;55.426;37.756;2023-07-20T21:17:14;98346.50;;;14.82;69.12
42671;BME280;28283;55.426;37.756;2023-07-20T21:22:14;98378.53;;;14.91;69.57
42671;BME280;28283;55.426;37.756;2023-07-20T21:27:15;98373.50;;;14.77;70.10
42671;BME280;28283;55.426;37.756;2023-07-20T21:32:15;98377.91;;;14.83;70.32
42671;BME280;28283;55.426;37.756;2023-07-20T21:37:18;98389.97;;;14.98;70.48
42671;BME280;28283;55.426;37.756;2023-07-20T21:42:18;98391.06;;;14.97;70.48
42671;BME280;28283;55.426;37.756;2023-07-20T21:47:20;98371.59;;;14.78;70.92
42671;BME280;28283;55.426;37.756;2023-07-20T21:52:20;98391.66;;;14.82;70.96
42671;BME280;28283;55.426;37.756;2023-07-20T21:57:21;98385.31;;;14.71;71.87
42671;BME280;28283;55.426;37.756;2023-07-20T22:02:22;98343.28;;;14.41;71.82
42671;BME280;28283;55.426;37.756;2023-07-20T22:07:22;98365.84;;;14.52;72.02
42671;BME280;28283;55.426;37.756;2023-07-20T22:12:23;98362.84;;;14.48;72.01
42671;BME280;28283;55.426;37.756;2023-07-20T22:17:23;98374.88;;;14.58;72.25
42671;BME280;28283;55.426;37.756;2023-07-20T22:22:24;98388.47;;;14.63;72.33
42671;BME280;28283;55.426;37.756;2023-07-20T22:27:24;98379.88;;;14.49;72.34
42671;BME280;28283;55.426;37.756;2023-07-20T22:32:25;98394.38;;;14.60;72.54
42671;BME280;28283;55.426;37.756;2023-07-20T22:37:26;98398.38;;;14.57;73.05
42671;BME280;28283;55.426;37.756;2023-07-20T22:42:27;98364.91;;;14.41;73.23
42671;BME280;28283;55.426;37.756;2023-07-20T22:47:28;98370.31;;;14.41;73.43
42671;BME280;28283;55.426;37.756;2023-07-20T22:52:31;98350.44;;;14.30;73.38
42671;BME280;28283;55.426;37.756;2023-07-20T22:57:32;98347.97;;;14.29;73.56
42671;BME280;28283;55.426;37.756;2023-07-20T23:02:33;98373.50;;;14.38;73.92
42671;BME280;28283;55.426;37.756;2023-07-20T23:07:37;98367.88;;;14.23;74.34
42671;BME280;28283;55.426;37.756;2023-07-20T23:12:39;98366.03;;;14.06;74.48
42671;BME280;28283;55.426;37.756;2023-07-20T23:17:42;98346.38;;;13.94;74.94
42671;BME280;28283;55.426;37.756;2023-07-20T23:22:44;98359.25;;;14.04;75.17
42671;BME280;28283;55.426;37.756;2023-07-20T23:27:49;98325.88;;;13.76;75.37
42671;BME280;28283;55.426;37.756;2023-07-20T23:32:50;98387.16;;;14.09;75.23
42671;BME280;28283;55.426;37.756;2023-07-20T23:37:52;98364.56;;;13.99;75.92
42671;BME280;28283;55.426;37.756;2023-07-20T23:42:53;98369.72;;;14.00;75.56
42671;BME280;28283;55.426;37.756;2023-07-20T23:47:54;98320.47;;;13.59;75.88
42671;BME280;28283;55.426;37.756;2023-07-20T23:52:54;98370.72;;;13.77;76.37
42671;BME280;28283;55.426;37.756;2023-07-20T23:57:55;98359.09;;;13.77;76.83
